Time;durP1;ratioP1;P1;durP2;ratioP2;P2;SDS_P1;SDS_P2;PMS_P1;PMS_P2;Temp;Humidity;BMP_temperature;BMP_pressure;BME280_temperature;BME280_humidity;BME280_pressure;Samples;Min_cycle;Max_cycle;Signal;HPM_P1;HPM_P2
2023/10/04 00:00:14;;;;;;;6.10;3.10;;;;;;;;;;109270;1252;58952;-80
2023/10/04 00:03:01;;;;;;;6.90;2.50;;;;;;;;;;109155;1256;59566;-80
2023/10/04 00:05:28;;;;;;;4.70;2.30;;;;;;;;;;109179;1253;59059;-80
2023/10/04 00:07:55;;;;;;;5.60;2.80;;;;;;;;;;109176;1257;62614;-80
2023/10/04 00:10:22;;;;;;;7.00;2.50;;;;;;;;;;109209;1254;59620;-80
2023/10/04 00:12:48;;;;;;;4.70;2.40;;;;;;;;;;109261;1252;59479;-80
2023/10/04 00:15:14;;;;;;;5.10;2.10;;;;;;;;;;109301;1252;59107;-81
2023/10/04 00:17:42;;;;;;;4.20;2.00;;;;;;;;;;109293;1253;59128;-80
2023/10/04 00:20:10;;;;;;;5.10;2.70;;;;;;;;;;109275;1254;61623;-80
2023/10/04 00:22:38;;;;;;;6.10;3.00;;;;;;;;;;109301;1252;59437;-82
2023/10/04 00:25:06;;;;;;;6.90;2.70;;;;;;;;;;109246;1253;59634;-81
2023/10/04 00:27:32;;;;;;;10.50;3.40;;;;;;;;;;109203;1253;59765;-81
2023/10/04 00:29:59;;;;;;;3.90;2.20;;;;;;;;;;109265;1253;59112;-82
2023/10/04 00:32:26;;;;;;;6.10;3.20;;;;;;;;;;109244;1253;59092;-81
2023/10/04 00:34:54;;;;;;;6.90;2.50;;;;;;;;;;109257;1253;59469;-81
2023/10/04 00:37:20;;;;;;;3.50;2.40;;;;;;;;;;109232;1253;60292;-81
2023/10/04 00:39:49;;;;;;;7.00;2.60;;;;;;;;;;109274;1253;59142;-80
2023/10/04 00:42:18;;;;;;;5.60;2.30;;;;;;;;;;109274;1253;59200;-81
2023/10/04 00:44:45;;;;;;;4.70;2.00;;;;;;;;;;109240;1253;63021;-80
2023/10/04 00:47:11;;;;;;;4.40;2.20;;;;;;;;;;109271;1253;59087;-80
2023/10/04 00:49:40;;;;;;;4.30;2.50;;;;;;;;;;109221;1253;59592;-81
2023/10/04 00:52:10;;;;;;;8.60;2.90;;;;;;;;;;109246;1253;59052;-80
2023/10/04 00:54:37;;;;;;;4.90;1.80;;;;;;;;;;109219;1253;59457;-80
2023/10/04 00:57:05;;;;;;;5.40;2.60;;;;;;;;;;109162;1254;62592;-80
2023/10/04 00:59:33;;;;;;;3.20;1.80;;;;;;;;;;109090;1254;59864;-81
2023/10/04 01:02:00;;;;;;;3.80;2.10;;;;;;;;;;109215;1253;59446;-80
2023/10/04 01:04:27;;;;;;;5.30;2.60;;;;;;;;;;109262;1252;59038;-80
2023/10/04 01:06:53;;;;;;;4.00;1.90;;;;;;;;;;109287;1253;59562;-81
2023/10/04 01:09:23;;;;;;;6.00;2.50;;;;;;;;;;109266;1254;62675;-80
2023/10/04 01:11:49;;;;;;;4.20;2.10;;;;;;;;;;109120;1252;174029;-81
2023/10/04 01:14:25;;;;;;;4.50;2.20;;;;;;;;;;109283;1252;59116;-81
2023/10/04 01:16:52;;;;;;;6.20;2.80;;;;;;;;;;109261;1254;59496;-81
2023/10/04 01:19:20;;;;;;;5.90;2.50;;;;;;;;;;109288;1254;59123;-80
2023/10/04 01:21:47;;;;;;;6.20;2.30;;;;;;;;;;109301;1252;61930;-80
2023/10/04 01:24:13;;;;;;;3.30;2.20;;;;;;;;;;109254;1253;59204;-80
2023/10/04 01:26:41;;;;;;;4.00;1.90;;;;;;;;;;109236;1253;59200;-81
2023/10/04 01:29:12;;;;;;;4.70;2.40;;;;;;;;;;109236;1253;59650;-82
2023/10/04 01:31:38;;;;;;;5.30;3.10;;;;;;;;;;109262;1253;59272;-81
2023/10/04 01:34:06;;;;;;;4.90;2.00;;;;;;;;;;109277;1253;59651;-81
2023/10/04 01:36:36;;;;;;;4.10;1.50;;;;;;;;;;109151;1254;59792;-81
2023/10/04 01:39:07;;;;;;;6.00;2.90;;;;;;;;;;109236;1254;59099;-81
2023/10/04 01:41:37;;;;;;;4.60;1.90;;;;;;;;;;109111;1253;59152;-80
2023/10/04 01:44:05;;;;;;;3.60;2.00;;;;;;;;;;109232;1253;59530;-81
2023/10/04 01:46:31;;;;;;;5.60;2.30;;;;;;;;;;109240;1252;61584;-80
2023/10/04 01:48:57;;;;;;;5.80;2.30;;;;;;;;;;109277;1253;58973;-81
2023/10/04 01:51:26;;;;;;;3.10;1.70;;;;;;;;;;109256;1254;59678;-80
2023/10/04 01:53:53;;;;;;;4.80;1.70;;;;;;;;;;109223;1252;59798;-80
2023/10/04 01:56:19;;;;;;;4.80;1.80;;;;;;;;;;109255;1256;59631;-80
2023/10/04 01:58:48;;;;;;;7.00;1.90;;;;;;;;;;109258;1254;59565;-80
2023/10/04 02:01:15;;;;;;;;;;;;;;;;;;109249;1253;59367;-80
2023/10/04 02:03:41;;;;;;;4.40;1.60;;;;;;;;;;109249;1253;59723;-80
2023/10/04 02:06:08;;;;;;;3.90;1.90;;;;;;;;;;109219;1255;59155;-80
2023/10/04 02:08:35;;;;;;;3.50;1.40;;;;;;;;;;109332;1253;59014;-80
2023/10/04 02:11:03;;;;;;;4.40;1.50;;;;;;;;;;109245;1255;61855;-80
2023/10/04 02:13:32;;;;;;;3.70;2.00;;;;;;;;;;109209;1254;59744;-81
2023/10/04 02:16:02;;;;;;;4.20;1.60;;;;;;;;;;109210;1254;59932;-80
2023/10/04 02:18:29;;;;;;;3.00;1.60;;;;;;;;;;109205;1253;59660;-80
2023/10/04 02:20:55;;;;;;;3.30;1.80;;;;;;;;;;109265;1253;59103;-80
2023/10/04 02:23:23;;;;;;;7.30;2.10;;;;;;;;;;109278;1254;59768;-80
2023/10/04 02:25:49;;;;;;;2.50;1.30;;;;;;;;;;109291;1254;59665;-81
2023/10/04 02:28:18;;;;;;;2.60;1.70;;;;;;;;;;109245;1254;59070;-80
2023/10/04 02:30:47;;;;;;;5.70;2.40;;;;;;;;;;109243;1252;59989;-80
2023/10/04 02:33:15;;;;;;;4.70;1.80;;;;;;;;;;109283;1253;59409;-80
2023/10/04 02:35:44;;;;;;;3.40;1.40;;;;;;;;;;109273;1252;61174;-81
2023/10/04 02:38:19;;;;;;;6.40;2.30;;;;;;;;;;109254;1253;59195;-81
2023/10/04 02:40:50;;;;;;;3.30;1.50;;;;;;;;;;109221;1254;59924;-80
2023/10/04 02:43:17;;;;;;;3.30;1.70;;;;;;;;;;109263;1253;59096;-81
2023/10/04 02:45:44;;;;;;;3.90;1.70;;;;;;;;;;109268;1254;59025;-81
2023/10/04 02:48:10;;;;;;;5.60;2.60;;;;;;;;;;109254;1253;60740;-81
2023/10/04 02:50:40;;;;;;;4.60;1.90;;;;;;;;;;109215;1254;59114;-81
2023/10/04 02:53:12;;;;;;;2.90;1.80;;;;;;;;;;109185;1254;60198;-81
2023/10/04 02:55:39;;;;;;;6.00;1.80;;;;;;;;;;109175;1254;59592;-80
2023/10/04 02:58:06;;;;;;;3.10;1.40;;;;;;;;;;109234;1253;59004;-80
2023/10/04 03:00:35;;;;;;;4.30;1.60;;;;;;;;;;109308;1252;62561;-80
2023/10/04 03:03:05;;;;;;;3.50;2.00;;;;;;;;;;109211;1254;59707;-80
2023/10/04 03:05:33;;;;;;;4.30;1.60;;;;;;;;;;109223;1252;60886;-80
2023/10/04 03:08:06;;;;;;;3.70;1.70;;;;;;;;;;109290;1253;59674;-80
2023/10/04 03:10:33;;;;;;;3.20;1.60;;;;;;;;;;109288;1255;59044;-80
2023/10/04 03:13:11;;;;;;;3.60;1.60;;;;;;;;;;109312;1254;62496;-80
2023/10/04 03:15:38;;;;;;;7.30;2.00;;;;;;;;;;109389;1254;59689;-81
2023/10/04 03:18:13;;;;;;;3.90;1.70;;;;;;;;;;109274;1253;60398;-80
2023/10/04 03:20:48;;;;;;;4.60;2.20;;;;;;;;;;109290;1254;59719;-80
2023/10/04 03:23:19;;;;;;;2.90;1.60;;;;;;;;;;109269;1253;59149;-80
2023/10/04 03:25:48;;;;;;;4.20;1.70;;;;;;;;;;109221;1254;61755;-80
2023/10/04 03:28:15;;;;;;;6.70;2.00;;;;;;;;;;109245;1254;59343;-80
2023/10/04 03:30:44;;;;;;;3.80;2.00;;;;;;;;;;109226;1253;59375;-80
2023/10/04 03:33:10;;;;;;;6.70;2.30;;;;;;;;;;109187;1254;59343;-80
2023/10/04 03:35:39;;;;;;;3.70;1.50;;;;;;;;;;109232;1253;59144;-80
2023/10/04 03:38:08;;;;;;;2.80;1.30;;;;;;;;;;109217;1254;60589;-81
2023/10/04 03:40:35;;;;;;;3.70;1.90;;;;;;;;;;109243;1254;59069;-80
2023/10/04 03:43:06;;;;;;;5.20;1.70;;;;;;;;;;109235;1253;59462;-80
2023/10/04 03:45:33;;;;;;;3.20;1.70;;;;;;;;;;109213;1253;59272;-80
2023/10/04 03:48:00;;;;;;;5.30;1.90;;;;;;;;;;109188;1253;59026;-80
2023/10/04 03:50:27;;;;;;;5.40;2.30;;;;;;;;;;109258;1253;61608;-80
2023/10/04 03:52:57;;;;;;;8.20;4.70;;;;;;;;;;109099;1254;59586;-80
2023/10/04 03:55:25;;;;;;;8.50;6.10;;;;;;;;;;109189;1254;60731;-80
2023/10/04 03:57:52;;;;;;;10.90;5.90;;;;;;;;;;109228;1254;59418;-80
2023/10/04 04:00:22;;;;;;;6.10;2.60;;;;;;;;;;109241;1253;59532;-80
2023/10/04 04:02:51;;;;;;;3.80;1.70;;;;;;;;;;109266;1254;62570;-80
2023/10/04 04:05:21;;;;;;;4.10;2.30;;;;;;;;;;109248;1252;58944;-80
2023/10/04 04:07:51;;;;;;;7.80;1.90;;;;;;;;;;109274;1254;60693;-80
2023/10/04 04:10:19;;;;;;;6.80;2.00;;;;;;;;;;109282;1252;59435;-80
2023/10/04 04:12:46;;;;;;;4.30;2.10;;;;;;;;;;109316;1252;59041;-80
2023/10/04 04:15:14;;;;;;;2.80;1.70;;;;;;;;;;109328;1252;63197;-80
2023/10/04 04:17:41;;;;;;;5.80;1.70;;;;;;;;;;109318;1252;59311;-80
2023/10/04 04:22:42;;;;;;;4.50;2.20;;;;;;;;;;109086;1254;59441;-80
2023/10/04 04:25:15;;;;;;;3.90;2.60;;;;;;;;;;109270;1253;59280;-80
2023/10/04 04:27:45;;;;;;;24.40;14.10;;;;;;;;;;109261;1254;62813;-80
2023/10/04 04:30:18;;;;;;;5.50;2.30;;;;;;;;;;109309;1253;59467;-80
2023/10/04 04:32:47;;;;;;;6.30;3.70;;;;;;;;;;109285;1254;61108;-80
2023/10/04 04:35:22;;;;;;;6.00;2.30;;;;;;;;;;109287;1254;59020;-80
2023/10/04 04:37:54;;;;;;;10.70;2.70;;;;;;;;;;109317;1254;59716;-80
2023/10/04 04:40:25;;;;;;;45.90;41.30;;;;;;;;;;109269;1254;61958;-80
2023/10/04 04:42:52;;;;;;;8.10;6.70;;;;;;;;;;109392;1254;59309;-81
2023/10/04 04:45:23;;;;;;;8.70;5.30;;;;;;;;;;109313;1252;59655;-81
2023/10/04 04:47:49;;;;;;;7.00;5.30;;;;;;;;;;109282;1252;59044;-81
2023/10/04 04:50:16;;;;;;;5.90;3.00;;;;;;;;;;109284;1254;59601;-81
2023/10/04 04:52:44;;;;;;;5.50;2.60;;;;;;;;;;109299;1254;60900;-81
2023/10/04 04:55:11;;;;;;;4.00;1.90;;;;;;;;;;109288;1254;59220;-81
2023/10/04 04:57:38;;;;;;;6.10;2.60;;;;;;;;;;109291;1254;59318;-82
2023/10/04 05:00:30;;;;;;;7.60;2.10;;;;;;;;;;109258;1254;59061;-81
2023/10/04 05:02:51;;;;;;;5.60;2.60;;;;;;;;;;109324;1253;59040;-81
2023/10/04 05:05:20;;;;;;;9.00;2.70;;;;;;;;;;109229;1254;59550;-80
2023/10/04 05:07:47;;;;;;;;;;;;;;;;;;109218;1254;59078;-81
2023/10/04 05:10:17;;;;;;;4.90;1.80;;;;;;;;;;109156;1254;61001;-81
2023/10/04 05:12:46;;;;;;;6.90;2.60;;;;;;;;;;109306;1251;59120;-80
2023/10/04 05:15:23;;;;;;;5.50;1.90;;;;;;;;;;109270;1253;58940;-81
2023/10/04 05:17:50;;;;;;;5.10;2.20;;;;;;;;;;109358;1251;60407;-80
2023/10/04 05:20:24;;;;;;;4.50;2.50;;;;;;;;;;109349;1251;59354;-81
2023/10/04 05:22:50;;;;;;;5.00;1.90;;;;;;;;;;109265;1254;59530;-81
2023/10/04 05:25:17;;;;;;;4.10;2.30;;;;;;;;;;109233;1253;58949;-81
2023/10/04 05:27:45;;;;;;;6.10;2.70;;;;;;;;;;109245;1253;59059;-81
2023/10/04 05:30:15;;;;;;;4.70;2.00;;;;;;;;;;109199;1253;61647;-81
2023/10/04 05:32:42;;;;;;;7.20;2.70;;;;;;;;;;109283;1251;59069;-80
2023/10/04 05:35:12;;;;;;;4.40;1.90;;;;;;;;;;109355;1251;59369;-80
2023/10/04 05:37:39;;;;;;;5.20;2.20;;;;;;;;;;109230;1253;59751;-80
2023/10/04 05:40:12;;;;;;;5.70;1.70;;;;;;;;;;109220;1253;59528;-80
2023/10/04 05:42:38;;;;;;;6.70;2.20;;;;;;;;;;109121;1253;63025;-81
2023/10/04 05:45:06;;;;;;;6.50;1.90;;;;;;;;;;109208;1252;59427;-80
2023/10/04 05:47:33;;;;;;;8.30;1.50;;;;;;;;;;109194;1254;60922;-81
2023/10/04 05:50:00;;;;;;;9.90;2.40;;;;;;;;;;109166;1253;59728;-80
2023/10/04 05:52:27;;;;;;;5.70;2.40;;;;;;;;;;109180;1252;58945;-81
2023/10/04 05:54:53;;;;;;;8.30;5.60;;;;;;;;;;109177;1253;61964;-80
2023/10/04 05:57:20;;;;;;;5.50;2.10;;;;;;;;;;109220;1251;59832;-81
2023/10/04 05:59:46;;;;;;;9.70;2.40;;;;;;;;;;109173;1253;59431;-80
2023/10/04 06:02:13;;;;;;;8.50;2.80;;;;;;;;;;109179;1253;59448;-80
2023/10/04 06:04:42;;;;;;;5.30;1.60;;;;;;;;;;109139;1252;59661;-81
2023/10/04 06:07:09;;;;;;;5.20;1.90;;;;;;;;;;109186;1252;60381;-81
2023/10/04 06:09:42;;;;;;;9.50;2.70;;;;;;;;;;109189;1251;59458;-80
2023/10/04 06:12:08;;;;;;;8.30;1.80;;;;;;;;;;109235;1253;59378;-81
2023/10/04 06:14:36;;;;;;;10.60;2.70;;;;;;;;;;109197;1252;59877;-81
2023/10/04 06:17:07;;;;;;;7.90;2.50;;;;;;;;;;109342;1253;59034;-80
2023/10/04 06:19:34;;;;;;;8.50;2.00;;;;;;;;;;109165;1252;61604;-81
2023/10/04 06:22:00;;;;;;;4.70;2.40;;;;;;;;;;109181;1253;59100;-81
2023/10/04 06:24:27;;;;;;;9.50;2.40;;;;;;;;;;109159;1252;59691;-81
2023/10/04 06:26:54;;;;;;;6.70;2.80;;;;;;;;;;109198;1253;59312;-80
2023/10/04 06:29:20;;;;;;;11.70;2.50;;;;;;;;;;109238;1252;58989;-80
2023/10/04 06:31:47;;;;;;;4.10;1.70;;;;;;;;;;109244;1251;59672;-81
2023/10/04 06:34:13;;;;;;;6.10;2.90;;;;;;;;;;109317;1251;59298;-80
2023/10/04 06:36:39;;;;;;;11.10;3.20;;;;;;;;;;109214;1252;59699;-80
2023/10/04 06:39:07;;;;;;;8.10;3.00;;;;;;;;;;109275;1253;59109;-80
2023/10/04 06:41:33;;;;;;;7.80;2.80;;;;;;;;;;109222;1252;59202;-81
2023/10/04 06:44:00;;;;;;;6.00;2.00;;;;;;;;;;109245;1251;59559;-81
2023/10/04 06:46:27;;;;;;;7.30;2.20;;;;;;;;;;109237;1253;59933;-81
2023/10/04 06:48:54;;;;;;;6.50;1.80;;;;;;;;;;109306;1251;59059;-81
2023/10/04 06:51:20;;;;;;;7.00;2.60;;;;;;;;;;109324;1252;59227;-80
2023/10/04 06:53:48;;;;;;;3.70;1.70;;;;;;;;;;109396;1251;58867;-81
2023/10/04 06:56:15;;;;;;;6.10;2.70;;;;;;;;;;109349;1252;61974;-81
2023/10/04 06:58:41;;;;;;;4.10;2.20;;;;;;;;;;109378;1251;59126;-81
2023/10/04 07:01:08;;;;;;;6.00;2.20;;;;;;;;;;109293;1251;59677;-81
2023/10/04 07:03:34;;;;;;;10.60;2.50;;;;;;;;;;109310;1251;59748;-81
2023/10/04 07:06:00;;;;;;;7.60;2.40;;;;;;;;;;109258;1252;59344;-81
2023/10/04 07:08:33;;;;;;;5.60;2.20;;;;;;;;;;109232;1251;59271;-81
2023/10/04 07:11:00;;;;;;;6.20;1.80;;;;;;;;;;109215;1251;59397;-81
2023/10/04 07:13:27;;;;;;;7.40;2.30;;;;;;;;;;109197;1253;59480;-81
2023/10/04 07:15:55;;;;;;;15.40;2.50;;;;;;;;;;109140;1252;59353;-80
2023/10/04 07:18:21;;;;;;;13.70;4.10;;;;;;;;;;109134;1254;59467;-81
2023/10/04 07:20:48;;;;;;;8.50;3.50;;;;;;;;;;109207;1252;59018;-81
2023/10/04 07:23:16;;;;;;;11.30;4.20;;;;;;;;;;109208;1252;59349;-81
2023/10/04 07:25:44;;;;;;;6.10;2.50;;;;;;;;;;109198;1253;59494;-82
2023/10/04 07:28:11;;;;;;;10.40;2.80;;;;;;;;;;109233;1251;59423;-81
2023/10/04 07:30:39;;;;;;;9.80;4.50;;;;;;;;;;109220;1253;59050;-81
2023/10/04 07:33:07;;;;;;;5.20;2.60;;;;;;;;;;109206;1253;62954;-81
2023/10/04 07:35:33;;;;;;;5.50;2.40;;;;;;;;;;109121;1251;59083;-81
2023/10/04 07:38:00;;;;;;;6.70;2.00;;;;;;;;;;109192;1251;59865;-81
2023/10/04 07:40:26;;;;;;;6.70;1.90;;;;;;;;;;109301;1253;59034;-80
2023/10/04 07:42:53;;;;;;;4.80;1.60;;;;;;;;;;109176;1252;59719;-81
2023/10/04 07:45:21;;;;;;;8.70;2.30;;;;;;;;;;109205;1252;60716;-81
2023/10/04 07:47:47;;;;;;;11.10;2.90;;;;;;;;;;109157;1253;59784;-81
2023/10/04 07:50:15;;;;;;;7.30;2.00;;;;;;;;;;109175;1253;59160;-82
2023/10/04 07:52:42;;;;;;;7.00;2.90;;;;;;;;;;109172;1253;59112;-81
2023/10/04 07:55:18;;;;;;;8.60;1.80;;;;;;;;;;109178;1252;58938;-81
2023/10/04 07:57:46;;;;;;;7.10;2.30;;;;;;;;;;109203;1253;60420;-81
2023/10/04 08:00:15;;;;;;;7.60;2.60;;;;;;;;;;109228;1253;59602;-81
2023/10/04 08:02:52;;;;;;;6.60;2.70;;;;;;;;;;109155;1253;59812;-81
2023/10/04 08:05:23;;;;;;;6.60;2.10;;;;;;;;;;109153;1253;59809;-81
2023/10/04 08:07:50;;;;;;;9.30;2.70;;;;;;;;;;109161;1252;59032;-81
2023/10/04 08:10:16;;;;;;;4.40;2.30;;;;;;;;;;109192;1254;61633;-81
2023/10/04 08:12:43;;;;;;;8.70;2.50;;;;;;;;;;109151;1254;59725;-81
2023/10/04 08:15:13;;;;;;;3.60;1.80;;;;;;;;;;109177;1252;60404;-81
2023/10/04 08:17:48;;;;;;;3.10;1.80;;;;;;;;;;109193;1252;59066;-81
2023/10/04 08:20:17;;;;;;;6.20;1.90;;;;;;;;;;109189;1252;59642;-81
2023/10/04 08:22:44;;;;;;;4.40;1.60;;;;;;;;;;109253;1252;61889;-82
2023/10/04 08:25:16;;;;;;;6.00;2.00;;;;;;;;;;109219;1252;59728;-82
2023/10/04 08:27:43;;;;;;;3.10;1.40;;;;;;;;;;109258;1252;60349;-82
2023/10/04 08:30:12;;;;;;;2.70;1.50;;;;;;;;;;109209;1253;59014;-82
2023/10/04 08:32:41;;;;;;;4.10;1.70;;;;;;;;;;109159;1252;59004;-82
2023/10/04 08:35:21;;;;;;;3.90;1.50;;;;;;;;;;109278;1256;61614;-82
2023/10/04 08:37:48;;;;;;;3.30;1.50;;;;;;;;;;109299;1253;59234;-82
2023/10/04 08:40:18;;;;;;;3.50;1.20;;;;;;;;;;109206;1252;59825;-82
2023/10/04 08:42:47;;;;;;;3.40;1.60;;;;;;;;;;109183;1252;59284;-82
2023/10/04 08:45:14;;;;;;;6.40;2.10;;;;;;;;;;109238;1252;58996;-82
2023/10/04 08:47:40;;;;;;;4.50;1.60;;;;;;;;;;109195;1254;61862;-82
2023/10/04 08:50:07;;;;;;;9.20;1.70;;;;;;;;;;109163;1253;58992;-82
2023/10/04 08:52:35;;;;;;;5.60;1.40;;;;;;;;;;109208;1252;60042;-82
2023/10/04 08:55:07;;;;;;;4.20;1.30;;;;;;;;;;109201;1253;60723;-82
2023/10/04 08:57:35;;;;;;;5.00;1.60;;;;;;;;;;109228;1252;59289;-82
2023/10/04 09:00:03;;;;;;;4.90;1.50;;;;;;;;;;109220;1252;62977;-82
2023/10/04 09:02:29;;;;;;;2.50;1.10;;;;;;;;;;109152;1254;59529;-82
2023/10/04 09:04:56;;;;;;;8.10;1.60;;;;;;;;;;109204;1252;59405;-82
2023/10/04 09:07:23;;;;;;;3.10;1.40;;;;;;;;;;109224;1253;59713;-82
2023/10/04 09:09:49;;;;;;;6.10;1.90;;;;;;;;;;109209;1253;59113;-82
2023/10/04 09:12:17;;;;;;;7.30;2.20;;;;;;;;;;109245;1252;59456;-81
2023/10/04 09:14:45;;;;;;;6.30;1.40;;;;;;;;;;109155;1252;59092;-82
2023/10/04 09:17:14;;;;;;;11.30;2.50;;;;;;;;;;109144;1253;60464;-82
2023/10/04 09:19:41;;;;;;;8.80;2.70;;;;;;;;;;109244;1252;59000;-82
2023/10/04 09:22:08;;;;;;;9.30;2.50;;;;;;;;;;109203;1252;59336;-81
2023/10/04 09:24:52;;;;;;;4.90;1.40;;;;;;;;;;109234;1252;60447;-81
2023/10/04 09:27:19;;;;;;;6.00;2.20;;;;;;;;;;109241;1254;59552;-81
2023/10/04 09:29:47;;;;;;;10.80;2.70;;;;;;;;;;109232;1252;60457;-82
2023/10/04 09:32:13;;;;;;;9.80;2.00;;;;;;;;;;109211;1252;59155;-81
2023/10/04 09:34:40;;;;;;;8.30;3.40;;;;;;;;;;109206;1251;59246;-81
2023/10/04 09:37:19;;;;;;;12.50;2.70;;;;;;;;;;109319;1251;59277;-82
2023/10/04 09:39:45;;;;;;;5.60;2.20;;;;;;;;;;109197;1253;59155;-82
2023/10/04 09:42:13;;;;;;;3.80;1.30;;;;;;;;;;109261;1252;59505;-82
2023/10/04 09:44:40;;;;;;;7.90;1.50;;;;;;;;;;109236;1252;59900;-81
2023/10/04 09:47:09;;;;;;;3.80;1.60;;;;;;;;;;109284;1252;59710;-82
2023/10/04 09:49:36;;;;;;;8.80;2.30;;;;;;;;;;109263;1253;61954;-81
2023/10/04 09:52:07;;;;;;;6.40;1.80;;;;;;;;;;109167;1252;59490;-81
2023/10/04 09:54:34;;;;;;;10.10;1.90;;;;;;;;;;109121;1252;60405;-82
2023/10/04 09:57:01;;;;;;;8.10;1.60;;;;;;;;;;109142;1252;59670;-81
2023/10/04 09:59:28;;;;;;;17.80;2.30;;;;;;;;;;109363;1252;59338;-81
2023/10/04 10:01:55;;;;;;;5.30;2.00;;;;;;;;;;109418;1252;62008;-81
2023/10/04 10:04:23;;;;;;;15.40;3.20;;;;;;;;;;109379;1252;59305;-81
2023/10/04 10:06:52;;;;;;;7.20;2.40;;;;;;;;;;109184;1252;59322;-82
2023/10/04 10:09:20;;;;;;;13.10;1.60;;;;;;;;;;109227;1253;59763;-81
2023/10/04 10:11:51;;;;;;;4.00;1.30;;;;;;;;;;109190;1252;59702;-81
2023/10/04 10:14:17;;;;;;;5.00;2.10;;;;;;;;;;109169;1252;62737;-81
2023/10/04 10:16:43;;;;;;;4.50;2.00;;;;;;;;;;109176;1254;59098;-81
2023/10/04 10:19:10;;;;;;;8.50;2.20;;;;;;;;;;109173;1254;59693;-81
2023/10/04 10:21:55;;;;;;;5.70;1.50;;;;;;;;;;109233;1253;59696;-82
2023/10/04 10:24:22;;;;;;;3.50;1.90;;;;;;;;;;109257;1252;58906;-81
2023/10/04 10:26:55;;;;;;;4.80;1.80;;;;;;;;;;109259;1252;61629;-81
2023/10/04 10:29:21;;;;;;;4.20;1.70;;;;;;;;;;109166;1253;60716;-81
2023/10/04 10:31:52;;;;;;;4.10;1.50;;;;;;;;;;109177;1252;59596;-81
2023/10/04 10:34:18;;;;;;;5.00;1.60;;;;;;;;;;109181;1252;59069;-81
2023/10/04 10:36:45;;;;;;;3.60;1.80;;;;;;;;;;109245;1252;59065;-82
2023/10/04 10:39:18;;;;;;;2.70;1.80;;;;;;;;;;109228;1252;60883;-82
2023/10/04 10:41:49;;;;;;;3.20;1.60;;;;;;;;;;109191;1252;59162;-81
2023/10/04 10:44:19;;;;;;;4.70;1.50;;;;;;;;;;109181;1252;59793;-81
2023/10/04 10:46:51;;;;;;;15.20;1.90;;;;;;;;;;109283;1252;59016;-81
2023/10/04 10:49:44;;;;;;;16.60;2.60;;;;;;;;;;109257;1252;59130;-81
2023/10/04 10:52:31;;;;;;;4.40;1.60;;;;;;;;;;109232;1252;62912;-81
2023/10/04 10:54:58;;;;;;;20.80;2.80;;;;;;;;;;109254;1252;59472;-81
2023/10/04 10:57:31;;;;;;;4.90;1.60;;;;;;;;;;109213;1252;59140;-81
2023/10/04 10:59:57;;;;;;;4.00;1.70;;;;;;;;;;109213;1252;59801;-81
2023/10/04 11:02:24;;;;;;;3.60;1.40;;;;;;;;;;109241;1251;59650;-81
2023/10/04 11:04:51;;;;;;;6.00;2.10;;;;;;;;;;109249;1251;63145;-81
2023/10/04 11:07:18;;;;;;;3.80;1.70;;;;;;;;;;109302;1252;59440;-81
2023/10/04 11:09:48;;;;;;;4.00;2.60;;;;;;;;;;109169;1254;59466;-81
2023/10/04 11:12:17;;;;;;;16.40;7.70;;;;;;;;;;109217;1252;59088;-81
2023/10/04 11:14:44;;;;;;;4.00;2.20;;;;;;;;;;109230;1252;59062;-81
2023/10/04 11:17:11;;;;;;;5.60;1.50;;;;;;;;;;109229;1252;62533;-81
2023/10/04 11:19:38;;;;;;;3.30;1.50;;;;;;;;;;109267;1252;59083;-81
2023/10/04 11:22:04;;;;;;;12.00;3.60;;;;;;;;;;109205;1253;60786;-81
2023/10/04 11:24:31;;;;;;;4.00;2.20;;;;;;;;;;109253;1252;59820;-82
2023/10/04 11:26:57;;;;;;;3.20;1.60;;;;;;;;;;109289;1253;59261;-81
2023/10/04 11:29:25;;;;;;;2.20;1.50;;;;;;;;;;109382;1251;59454;-81
2023/10/04 11:31:51;;;;;;;5.30;1.50;;;;;;;;;;109338;1252;59022;-81
2023/10/04 11:34:17;;;;;;;11.00;1.90;;;;;;;;;;109237;1251;59842;-82
2023/10/04 11:36:45;;;;;;;37.50;4.40;;;;;;;;;;109220;1251;59228;-81
2023/10/04 11:39:18;;;;;;;16.60;3.40;;;;;;;;;;109335;1251;59016;-81
2023/10/04 11:41:46;;;;;;;11.30;2.60;;;;;;;;;;109211;1253;60803;-82
2023/10/04 11:44:13;;;;;;;4.50;1.70;;;;;;;;;;109234;1254;59285;-81
2023/10/04 11:47:00;;;;;;;4.90;2.10;;;;;;;;;;109239;1252;59755;-82
2023/10/04 11:49:29;;;;;;;3.80;1.90;;;;;;;;;;109213;1252;59428;-81
2023/10/04 11:52:00;;;;;;;3.60;1.80;;;;;;;;;;109038;1252;59392;-82
2023/10/04 11:54:45;;;;;;;10.70;2.90;;;;;;;;;;109183;1253;61594;-79
2023/10/04 11:57:11;;;;;;;4.60;1.70;;;;;;;;;;109199;1252;59863;-79
2023/10/04 11:59:39;;;;;;;8.20;1.80;;;;;;;;;;109246;1251;60638;-80
2023/10/04 12:02:06;;;;;;;13.80;2.60;;;;;;;;;;109203;1252;59032;-80
2023/10/04 12:04:32;;;;;;;10.00;2.60;;;;;;;;;;109200;1252;59160;-81
2023/10/04 12:07:04;;;;;;;17.80;3.00;;;;;;;;;;109212;1252;61407;-81
2023/10/04 12:09:36;;;;;;;116.30;13.20;;;;;;;;;;109239;1252;59799;-82
2023/10/04 12:12:04;;;;;;;57.20;7.50;;;;;;;;;;109161;1252;60264;-81
2023/10/04 12:14:31;;;;;;;11.80;2.80;;;;;;;;;;109179;1254;59161;-81
2023/10/04 12:17:04;;;;;;;16.20;2.70;;;;;;;;;;109207;1253;59670;-81
2023/10/04 12:19:34;;;;;;;32.50;4.80;;;;;;;;;;109240;1252;61640;-82
2023/10/04 12:22:02;;;;;;;17.90;2.80;;;;;;;;;;109247;1252;59453;-82
2023/10/04 12:24:32;;;;;;;18.50;2.80;;;;;;;;;;109177;1256;60387;-82
2023/10/04 12:27:00;;;;;;;20.10;2.70;;;;;;;;;;109192;1252;59128;-81
2023/10/04 12:29:30;;;;;;;9.60;2.50;;;;;;;;;;109309;1253;59138;-82
2023/10/04 12:31:56;;;;;;;6.90;2.00;;;;;;;;;;109261;1251;63069;-81
2023/10/04 12:34:24;;;;;;;2.60;1.60;;;;;;;;;;109334;1252;59309;-81
2023/10/04 12:36:51;;;;;;;3.90;1.40;;;;;;;;;;109167;1253;59794;-82
2023/10/04 12:39:17;;;;;;;3.70;1.70;;;;;;;;;;109226;1253;58947;-81
2023/10/04 12:41:45;;;;;;;3.80;1.40;;;;;;;;;;109222;1252;59112;-81
2023/10/04 12:44:12;;;;;;;11.00;2.00;;;;;;;;;;109235;1252;63277;-82
2023/10/04 12:46:39;;;;;;;10.70;2.50;;;;;;;;;;109221;1253;59437;-81
2023/10/04 12:49:08;;;;;;;5.30;1.90;;;;;;;;;;109232;1253;59598;-82
2023/10/04 12:51:34;;;;;;;4.20;2.00;;;;;;;;;;109200;1253;59022;-81
2023/10/04 12:54:01;;;;;;;4.40;1.70;;;;;;;;;;109218;1254;59326;-81
2023/10/04 12:56:27;;;;;;;8.10;1.80;;;;;;;;;;109213;1252;61714;-81
2023/10/04 12:58:54;;;;;;;3.40;1.90;;;;;;;;;;109255;1253;59695;-81
2023/10/04 13:01:21;;;;;;;13.30;1.80;;;;;;;;;;109230;1252;58940;-81
2023/10/04 13:03:47;;;;;;;27.80;3.60;;;;;;;;;;109195;1252;59062;-81
2023/10/04 13:06:14;;;;;;;13.40;2.30;;;;;;;;;;109250;1253;58936;-82
2023/10/04 13:08:42;;;;;;;8.20;2.50;;;;;;;;;;109257;1252;62943;-81
2023/10/04 13:11:11;;;;;;;17.00;3.20;;;;;;;;;;109123;1252;168053;-81
2023/10/04 13:13:38;;;;;;;57.40;5.60;;;;;;;;;;109212;1252;59231;-81
2023/10/04 13:16:05;;;;;;;32.80;4.30;;;;;;;;;;109225;1252;59754;-81
2023/10/04 13:18:32;;;;;;;33.90;4.20;;;;;;;;;;109262;1253;59668;-82
2023/10/04 13:21:00;;;;;;;10.40;2.20;;;;;;;;;;109244;1252;61643;-81
2023/10/04 13:23:26;;;;;;;3.70;1.80;;;;;;;;;;109213;1253;60992;-81
2023/10/04 13:25:54;;;;;;;42.20;8.10;;;;;;;;;;109210;1252;59429;-82
2023/10/04 13:28:23;;;;;;;36.40;3.80;;;;;;;;;;109196;1254;59715;-82
2023/10/04 13:30:49;;;;;;;8.30;2.00;;;;;;;;;;109218;1252;59003;-81
2023/10/04 13:33:16;;;;;;;95.60;8.00;;;;;;;;;;109239;1253;59828;-81
2023/10/04 13:35:42;;;;;;;41.10;5.00;;;;;;;;;;109238;1253;59119;-82
2023/10/04 13:38:09;;;;;;;18.70;2.60;;;;;;;;;;109241;1253;59388;-82
2023/10/04 13:40:36;;;;;;;9.60;2.20;;;;;;;;;;109242;1252;59510;-81
2023/10/04 13:43:02;;;;;;;25.20;3.50;;;;;;;;;;109229;1253;59574;-81
2023/10/04 13:45:31;;;;;;;11.80;2.20;;;;;;;;;;109191;1252;61383;-82
2023/10/04 13:48:03;;;;;;;89.10;7.10;;;;;;;;;;109278;1253;59555;-82
2023/10/04 13:50:30;;;;;;;104.00;10.40;;;;;;;;;;109236;1253;59404;-81
2023/10/04 13:52:57;;;;;;;93.10;9.60;;;;;;;;;;109204;1253;59516;-82
2023/10/04 13:55:25;;;;;;;98.70;8.90;;;;;;;;;;109278;1253;59421;-81
2023/10/04 13:57:55;;;;;;;60.00;5.80;;;;;;;;;;109280;1252;60645;-82
2023/10/04 14:00:22;;;;;;;18.20;3.40;;;;;;;;;;109253;1253;59479;-82
2023/10/04 14:02:49;;;;;;;61.50;5.90;;;;;;;;;;109210;1254;59263;-82
2023/10/04 14:05:18;;;;;;;18.10;2.90;;;;;;;;;;109268;1256;59852;-82
2023/10/04 14:07:51;;;;;;;10.50;2.00;;;;;;;;;;109111;1256;58974;-82
2023/10/04 14:10:22;;;;;;;10.30;2.20;;;;;;;;;;109219;1253;62135;-82
2023/10/04 14:12:52;;;;;;;8.50;1.60;;;;;;;;;;109181;1253;59333;-81
2023/10/04 14:15:19;;;;;;;18.10;2.50;;;;;;;;;;109270;1253;59403;-81
2023/10/04 14:17:46;;;;;;;4.30;1.90;;;;;;;;;;109221;1252;59169;-81
2023/10/04 14:20:14;;;;;;;7.70;1.60;;;;;;;;;;109231;1253;59047;-82
2023/10/04 14:22:41;;;;;;;4.70;1.80;;;;;;;;;;109236;1253;62639;-82
2023/10/04 14:25:09;;;;;;;12.50;2.40;;;;;;;;;;109297;1252;59256;-82
2023/10/04 14:27:35;;;;;;;6.60;2.10;;;;;;;;;;109411;1253;59746;-81
2023/10/04 14:30:03;;;;;;;4.00;1.60;;;;;;;;;;109332;1253;59775;-82
2023/10/04 14:32:30;;;;;;;3.80;1.50;;;;;;;;;;109277;1253;59211;-82
2023/10/04 14:34:56;;;;;;;3.60;1.50;;;;;;;;;;109269;1252;59024;-82
2023/10/04 14:37:23;;;;;;;4.30;2.10;;;;;;;;;;109245;1252;59387;-81